sensor_id;sensor_type;location;lat;lon;timestamp;temperature;humidity
26107;DHT22;13866;50.748;12.630;2022-08-21T00:00:39;16.60;99.90
26107;DHT22;13866;50.748;12.630;2022-08-21T00:03:08;16.60;99.90
26107;DHT22;13866;50.748;12.630;2022-08-21T00:05:38;16.60;99.90
26107;DHT22;13866;50.748;12.630;2022-08-21T00:08:05;16.60;99.90
26107;DHT22;13866;50.748;12.630;2022-08-21T00:10:30;16.60;99.90
26107;DHT22;13866;50.748;12.630;2022-08-21T00:12:56;16.60;99.90
26107;DHT22;13866;50.748;12.630;2022-08-21T00:15:27;16.60;99.90
26107;DHT22;13866;50.748;12.630;2022-08-21T00:17:54;16.50;99.90
26107;DHT22;13866;50.748;12.630;2022-08-21T00:20:21;16.50;99.90
26107;DHT22;13866;50.748;12.630;2022-08-21T00:22:47;16.50;99.90
26107;DHT22;13866;50.748;12.630;2022-08-21T00:25:13;16.50;99.90
26107;DHT22;13866;50.748;12.630;2022-08-21T00:27:40;16.50;99.90
26107;DHT22;13866;50.748;12.630;2022-08-21T00:30:08;16.50;99.90
26107;DHT22;13866;50.748;12.630;2022-08-21T00:32:34;16.50;99.90
26107;DHT22;13866;50.748;12.630;2022-08-21T00:35:02;16.50;99.90
26107;DHT22;13866;50.748;12.630;2022-08-21T00:37:27;16.50;99.90
26107;DHT22;13866;50.748;12.630;2022-08-21T00:39:53;16.50;99.90
26107;DHT22;13866;50.748;12.630;2022-08-21T00:42:18;16.50;99.90
26107;DHT22;13866;50.748;12.630;2022-08-21T00:44:47;16.50;99.90
26107;DHT22;13866;50.748;12.630;2022-08-21T00:47:13;16.50;99.90
26107;DHT22;13866;50.748;12.630;2022-08-21T00:49:39;16.50;99.90
26107;DHT22;13866;50.748;12.630;2022-08-21T00:52:08;16.50;99.90
26107;DHT22;13866;50.748;12.630;2022-08-21T00:54:34;16.50;99.90
26107;DHT22;13866;50.748;12.630;2022-08-21T00:57:12;16.50;99.90
26107;DHT22;13866;50.748;12.630;2022-08-21T00:59:40;16.50;99.90
26107;DHT22;13866;50.748;12.630;2022-08-21T01:02:07;16.40;99.90
26107;DHT22;13866;50.748;12.630;2022-08-21T01:04:33;16.50;99.90
26107;DHT22;13866;50.748;12.630;2022-08-21T01:06:59;16.40;99.90
26107;DHT22;13866;50.748;12.630;2022-08-21T01:09:24;16.40;99.90
26107;DHT22;13866;50.748;12.630;2022-08-21T01:11:50;16.40;99.90
26107;DHT22;13866;50.748;12.630;2022-08-21T01:14:16;16.30;99.90
26107;DHT22;13866;50.748;12.630;2022-08-21T01:16:46;16.30;99.90
26107;DHT22;13866;50.748;12.630;2022-08-21T01:19:12;16.30;99.90
26107;DHT22;13866;50.748;12.630;2022-08-21T01:21:39;16.30;99.90
26107;DHT22;13866;50.748;12.630;2022-08-21T01:24:05;16.30;99.90
26107;DHT22;13866;50.748;12.630;2022-08-21T01:26:33;16.40;99.90
26107;DHT22;13866;50.748;12.630;2022-08-21T01:29:12;16.30;99.90
26107;DHT22;13866;50.748;12.630;2022-08-21T01:31:38;16.30;99.90
26107;DHT22;13866;50.748;12.630;2022-08-21T01:34:04;16.30;99.90
26107;DHT22;13866;50.748;12.630;2022-08-21T01:36:31;16.20;99.90
26107;DHT22;13866;50.748;12.630;2022-08-21T01:38:57;16.30;99.90
26107;DHT22;13866;50.748;12.630;2022-08-21T01:41:23;16.30;99.90
26107;DHT22;13866;50.748;12.630;2022-08-21T01:43:48;16.30;99.90
26107;DHT22;13866;50.748;12.630;2022-08-21T01:46:14;16.30;99.90
26107;DHT22;13866;50.748;12.630;2022-08-21T01:48:41;16.30;99.90
26107;DHT22;13866;50.748;12.630;2022-08-21T01:51:07;16.30;99.90
26107;DHT22;13866;50.748;12.630;2022-08-21T01:53:34;16.40;99.90
26107;DHT22;13866;50.748;12.630;2022-08-21T01:56:01;16.40;99.90
26107;DHT22;13866;50.748;12.630;2022-08-21T01:58:27;16.40;99.90
26107;DHT22;13866;50.748;12.630;2022-08-21T02:00:53;16.40;99.90
26107;DHT22;13866;50.748;12.630;2022-08-21T02:03:18;16.50;99.90
26107;DHT22;13866;50.748;12.630;2022-08-21T02:05:44;16.50;99.90
26107;DHT22;13866;50.748;12.630;2022-08-21T02:08:09;16.50;99.90
26107;DHT22;13866;50.748;12.630;2022-08-21T02:10:35;16.50;99.90
26107;DHT22;13866;50.748;12.630;2022-08-21T02:13:00;16.50;99.90
26107;DHT22;13866;50.748;12.630;2022-08-21T02:15:28;16.50;99.90
26107;DHT22;13866;50.748;12.630;2022-08-21T02:17:57;16.60;99.90
26107;DHT22;13866;50.748;12.630;2022-08-21T02:20:44;16.50;99.90
26107;DHT22;13866;50.748;12.630;2022-08-21T02:23:11;16.50;99.90
26107;DHT22;13866;50.748;12.630;2022-08-21T02:25:37;16.50;99.90
26107;DHT22;13866;50.748;12.630;2022-08-21T02:28:11;16.50;99.90
26107;DHT22;13866;50.748;12.630;2022-08-21T02:30:40;16.50;99.90
26107;DHT22;13866;50.748;12.630;2022-08-21T02:33:07;16.50;99.90
26107;DHT22;13866;50.748;12.630;2022-08-21T02:35:35;16.60;99.90
26107;DHT22;13866;50.748;12.630;2022-08-21T02:38:04;16.60;99.90
26107;DHT22;13866;50.748;12.630;2022-08-21T02:40:35;16.60;99.90
26107;DHT22;13866;50.748;12.630;2022-08-21T02:43:02;16.50;99.90
26107;DHT22;13866;50.748;12.630;2022-08-21T02:45:29;16.60;99.90
26107;DHT22;13866;50.748;12.630;2022-08-21T02:47:57;16.60;99.90
26107;DHT22;13866;50.748;12.630;2022-08-21T02:50:30;16.60;99.90
26107;DHT22;13866;50.748;12.630;2022-08-21T02:52:56;16.60;99.90
26107;DHT22;13866;50.748;12.630;2022-08-21T02:55:24;16.60;99.90
26107;DHT22;13866;50.748;12.630;2022-08-21T02:57:52;16.60;99.90
26107;DHT22;13866;50.748;12.630;2022-08-21T03:00:17;16.60;99.90
26107;DHT22;13866;50.748;12.630;2022-08-21T03:02:43;16.60;99.90
26107;DHT22;13866;50.748;12.630;2022-08-21T03:05:12;16.60;99.90
26107;DHT22;13866;50.748;12.630;2022-08-21T03:07:38;16.60;99.90
26107;DHT22;13866;50.748;12.630;2022-08-21T03:10:06;16.60;99.90
26107;DHT22;13866;50.748;12.630;2022-08-21T03:12:31;16.60;99.90
26107;DHT22;13866;50.748;12.630;2022-08-21T03:14:57;16.60;99.90
26107;DHT22;13866;50.748;12.630;2022-08-21T03:17:23;16.60;99.90
26107;DHT22;13866;50.748;12.630;2022-08-21T03:19:49;16.60;99.90
26107;DHT22;13866;50.748;12.630;2022-08-21T03:22:15;16.60;99.90
26107;DHT22;13866;50.748;12.630;2022-08-21T03:24:41;16.50;99.90
26107;DHT22;13866;50.748;12.630;2022-08-21T03:27:06;16.60;99.90
26107;DHT22;13866;50.748;12.630;2022-08-21T03:29:32;16.60;99.90
26107;DHT22;13866;50.748;12.630;2022-08-21T03:31:57;16.50;99.90
26107;DHT22;13866;50.748;12.630;2022-08-21T03:34:23;16.50;99.90
26107;DHT22;13866;50.748;12.630;2022-08-21T03:36:48;16.50;99.90
26107;DHT22;13866;50.748;12.630;2022-08-21T03:39:15;16.50;99.90
26107;DHT22;13866;50.748;12.630;2022-08-21T03:41:41;16.50;99.90
26107;DHT22;13866;50.748;12.630;2022-08-21T03:44:07;16.50;99.90
26107;DHT22;13866;50.748;12.630;2022-08-21T03:46:32;16.50;99.90
26107;DHT22;13866;50.748;12.630;2022-08-21T03:48:58;16.50;99.90
26107;DHT22;13866;50.748;12.630;2022-08-21T03:51:23;16.50;99.90
26107;DHT22;13866;50.748;12.630;2022-08-21T03:53:49;16.60;99.90
26107;DHT22;13866;50.748;12.630;2022-08-21T03:56:15;16.50;99.90
26107;DHT22;13866;50.748;12.630;2022-08-21T03:58:41;16.50;99.90
26107;DHT22;13866;50.748;12.630;2022-08-21T04:01:07;16.50;99.90
26107;DHT22;13866;50.748;12.630;2022-08-21T04:03:35;16.50;99.90
26107;DHT22;13866;50.748;12.630;2022-08-21T04:06:00;16.50;99.90
26107;DHT22;13866;50.748;12.630;2022-08-21T04:08:26;16.50;99.90
26107;DHT22;13866;50.748;12.630;2022-08-21T04:10:54;16.50;99.90
26107;DHT22;13866;50.748;12.630;2022-08-21T04:13:20;16.50;99.90
26107;DHT22;13866;50.748;12.630;2022-08-21T04:15:46;16.50;99.90
26107;DHT22;13866;50.748;12.630;2022-08-21T04:18:12;16.50;99.90
26107;DHT22;13866;50.748;12.630;2022-08-21T04:20:39;16.50;99.90
26107;DHT22;13866;50.748;12.630;2022-08-21T04:23:06;16.50;99.90
26107;DHT22;13866;50.748;12.630;2022-08-21T04:25:32;16.50;99.90
26107;DHT22;13866;50.748;12.630;2022-08-21T04:27:57;16.50;99.90
26107;DHT22;13866;50.748;12.630;2022-08-21T04:30:23;16.50;99.90
26107;DHT22;13866;50.748;12.630;2022-08-21T04:32:50;16.50;99.90
26107;DHT22;13866;50.748;12.630;2022-08-21T04:35:19;16.50;99.90
26107;DHT22;13866;50.748;12.630;2022-08-21T04:37:45;16.60;99.90
26107;DHT22;13866;50.748;12.630;2022-08-21T04:40:12;16.60;99.90
26107;DHT22;13866;50.748;12.630;2022-08-21T04:42:47;16.60;99.90
26107;DHT22;13866;50.748;12.630;2022-08-21T04:48:13;16.60;99.90
26107;DHT22;13866;50.748;12.630;2022-08-21T04:53:18;16.70;99.90
26107;DHT22;13866;50.748;12.630;2022-08-21T04:55:45;16.70;99.90
26107;DHT22;13866;50.748;12.630;2022-08-21T04:58:14;16.70;99.90
26107;DHT22;13866;50.748;12.630;2022-08-21T05:00:41;16.70;99.90
26107;DHT22;13866;50.748;12.630;2022-08-21T05:03:08;16.70;99.90
26107;DHT22;13866;50.748;12.630;2022-08-21T05:05:34;16.70;99.90
26107;DHT22;13866;50.748;12.630;2022-08-21T05:08:02;16.70;99.90
26107;DHT22;13866;50.748;12.630;2022-08-21T05:10:28;16.70;99.90
26107;DHT22;13866;50.748;12.630;2022-08-21T05:12:54;16.70;99.90
26107;DHT22;13866;50.748;12.630;2022-08-21T05:15:20;16.70;99.90
26107;DHT22;13866;50.748;12.630;2022-08-21T05:17:46;16.70;99.90
26107;DHT22;13866;50.748;12.630;2022-08-21T05:20:13;16.70;99.90
26107;DHT22;13866;50.748;12.630;2022-08-21T05:22:39;16.70;99.90
26107;DHT22;13866;50.748;12.630;2022-08-21T05:25:05;16.70;99.90
26107;DHT22;13866;50.748;12.630;2022-08-21T05:27:31;16.80;99.90
26107;DHT22;13866;50.748;12.630;2022-08-21T05:29:57;16.80;99.90
26107;DHT22;13866;50.748;12.630;2022-08-21T05:32:23;16.80;99.90
26107;DHT22;13866;50.748;12.630;2022-08-21T05:34:48;16.80;99.90
26107;DHT22;13866;50.748;12.630;2022-08-21T05:37:14;16.80;99.90
26107;DHT22;13866;50.748;12.630;2022-08-21T05:39:39;16.90;99.90
26107;DHT22;13866;50.748;12.630;2022-08-21T05:42:05;16.90;99.90
26107;DHT22;13866;50.748;12.630;2022-08-21T05:44:31;16.90;99.90
26107;DHT22;13866;50.748;12.630;2022-08-21T05:47:05;16.90;99.90
26107;DHT22;13866;50.748;12.630;2022-08-21T05:49:31;16.90;99.90
26107;DHT22;13866;50.748;12.630;2022-08-21T05:51:57;17.00;99.90
26107;DHT22;13866;50.748;12.630;2022-08-21T05:54:22;17.00;99.90
26107;DHT22;13866;50.748;12.630;2022-08-21T05:56:48;17.10;99.90
26107;DHT22;13866;50.748;12.630;2022-08-21T05:59:13;17.10;99.90
26107;DHT22;13866;50.748;12.630;2022-08-21T06:01:39;17.10;99.90
26107;DHT22;13866;50.748;12.630;2022-08-21T06:04:05;17.10;99.90
26107;DHT22;13866;50.748;12.630;2022-08-21T06:06:31;17.00;99.90
26107;DHT22;13866;50.748;12.630;2022-08-21T06:08:56;17.00;99.90
26107;DHT22;13866;50.748;12.630;2022-08-21T06:11:22;16.90;99.90
26107;DHT22;13866;50.748;12.630;2022-08-21T06:13:47;16.90;99.90
26107;DHT22;13866;50.748;12.630;2022-08-21T06:16:15;16.90;99.90
26107;DHT22;13866;50.748;12.630;2022-08-21T06:18:41;16.90;99.90
26107;DHT22;13866;50.748;12.630;2022-08-21T06:21:07;16.90;99.90
26107;DHT22;13866;50.748;12.630;2022-08-21T06:23:34;16.90;99.90
26107;DHT22;13866;50.748;12.630;2022-08-21T06:26:01;16.90;99.90
26107;DHT22;13866;50.748;12.630;2022-08-21T06:28:27;17.00;99.90
26107;DHT22;13866;50.748;12.630;2022-08-21T06:30:53;17.00;99.90
26107;DHT22;13866;50.748;12.630;2022-08-21T06:33:18;17.00;99.90
26107;DHT22;13866;50.748;12.630;2022-08-21T06:35:44;17.10;99.90
26107;DHT22;13866;50.748;12.630;2022-08-21T06:38:10;17.10;99.90
26107;DHT22;13866;50.748;12.630;2022-08-21T06:40:35;17.10;99.90
26107;DHT22;13866;50.748;12.630;2022-08-21T06:43:12;17.20;99.90
26107;DHT22;13866;50.748;12.630;2022-08-21T06:45:39;17.10;99.90
26107;DHT22;13866;50.748;12.630;2022-08-21T06:48:05;17.10;99.90
26107;DHT22;13866;50.748;12.630;2022-08-21T06:50:32;17.10;99.90
26107;DHT22;13866;50.748;12.630;2022-08-21T06:53:11;17.10;99.90
26107;DHT22;13866;50.748;12.630;2022-08-21T06:55:38;17.00;99.90
26107;DHT22;13866;50.748;12.630;2022-08-21T06:58:04;17.00;99.90
26107;DHT22;13866;50.748;12.630;2022-08-21T07:00:31;17.00;99.90
26107;DHT22;13866;50.748;12.630;2022-08-21T07:02:57;17.00;99.90
26107;DHT22;13866;50.748;12.630;2022-08-21T07:05:26;17.00;99.90
26107;DHT22;13866;50.748;12.630;2022-08-21T07:07:51;17.00;99.90
26107;DHT22;13866;50.748;12.630;2022-08-21T07:10:17;17.10;99.90
26107;DHT22;13866;50.748;12.630;2022-08-21T07:12:43;17.20;99.90
26107;DHT22;13866;50.748;12.630;2022-08-21T07:15:09;17.20;99.90
26107;DHT22;13866;50.748;12.630;2022-08-21T07:17:34;17.30;99.90
26107;DHT22;13866;50.748;12.630;2022-08-21T07:20:00;17.40;99.90
26107;DHT22;13866;50.748;12.630;2022-08-21T07:22:25;17.50;99.90
26107;DHT22;13866;50.748;12.630;2022-08-21T07:24:53;17.60;99.90
26107;DHT22;13866;50.748;12.630;2022-08-21T07:27:18;17.70;99.90
26107;DHT22;13866;50.748;12.630;2022-08-21T07:29:44;17.70;99.90
26107;DHT22;13866;50.748;12.630;2022-08-21T07:32:09;17.60;99.90
26107;DHT22;13866;50.748;12.630;2022-08-21T07:34:35;17.50;99.90
26107;DHT22;13866;50.748;12.630;2022-08-21T07:37:00;17.50;99.90
26107;DHT22;13866;50.748;12.630;2022-08-21T07:39:26;17.60;99.90
26107;DHT22;13866;50.748;12.630;2022-08-21T07:41:51;17.60;99.90
26107;DHT22;13866;50.748;12.630;2022-08-21T07:44:17;17.60;99.90
26107;DHT22;13866;50.748;12.630;2022-08-21T07:46:42;17.60;99.90
26107;DHT22;13866;50.748;12.630;2022-08-21T07:49:08;17.50;99.90
26107;DHT22;13866;50.748;12.630;2022-08-21T07:51:33;17.40;99.90
26107;DHT22;13866;50.748;12.630;2022-08-21T07:54:00;17.50;99.90
26107;DHT22;13866;50.748;12.630;2022-08-21T07:56:27;17.50;99.90
26107;DHT22;13866;50.748;12.630;2022-08-21T07:58:53;17.60;99.90
26107;DHT22;13866;50.748;12.630;2022-08-21T08:01:19;17.70;99.90
26107;DHT22;13866;50.748;12.630;2022-08-21T08:03:45;17.80;99.90
26107;DHT22;13866;50.748;12.630;2022-08-21T08:06:11;17.90;99.90
26107;DHT22;13866;50.748;12.630;2022-08-21T08:08:38;17.90;99.90
26107;DHT22;13866;50.748;12.630;2022-08-21T08:11:05;18.00;99.90
26107;DHT22;13866;50.748;12.630;2022-08-21T08:13:31;18.10;99.90
26107;DHT22;13866;50.748;12.630;2022-08-21T08:15:57;18.30;99.90
26107;DHT22;13866;50.748;12.630;2022-08-21T08:18:22;18.40;99.90
26107;DHT22;13866;50.748;12.630;2022-08-21T08:20:48;18.50;99.90
26107;DHT22;13866;50.748;12.630;2022-08-21T08:23:14;18.50;99.90
26107;DHT22;13866;50.748;12.630;2022-08-21T08:25:40;18.50;99.90
26107;DHT22;13866;50.748;12.630;2022-08-21T08:28:06;18.70;99.90
26107;DHT22;13866;50.748;12.630;2022-08-21T08:30:32;18.90;99.90
26107;DHT22;13866;50.748;12.630;2022-08-21T08:32:57;19.00;99.90
26107;DHT22;13866;50.748;12.630;2022-08-21T08:35:25;19.00;99.90
26107;DHT22;13866;50.748;12.630;2022-08-21T08:37:51;19.10;99.90
26107;DHT22;13866;50.748;12.630;2022-08-21T08:40:39;19.10;99.90
26107;DHT22;13866;50.748;12.630;2022-08-21T08:43:06;19.20;99.90
26107;DHT22;13866;50.748;12.630;2022-08-21T08:45:36;19.30;99.90
26107;DHT22;13866;50.748;12.630;2022-08-21T08:48:05;19.50;99.90
26107;DHT22;13866;50.748;12.630;2022-08-21T08:50:49;19.60;99.90
26107;DHT22;13866;50.748;12.630;2022-08-21T08:53:22;19.70;99.90
26107;DHT22;13866;50.748;12.630;2022-08-21T08:55:51;20.10;99.90
26107;DHT22;13866;50.748;12.630;2022-08-21T08:58:24;20.50;99.90
26107;DHT22;13866;50.748;12.630;2022-08-21T09:00:52;20.70;99.90
26107;DHT22;13866;50.748;12.630;2022-08-21T09:03:17;21.10;99.90
26107;DHT22;13866;50.748;12.630;2022-08-21T09:05:54;21.50;99.90
26107;DHT22;13866;50.748;12.630;2022-08-21T09:08:26;21.50;99.90
26107;DHT22;13866;50.748;12.630;2022-08-21T09:11:36;21.60;99.90
26107;DHT22;13866;50.748;12.630;2022-08-21T09:14:14;21.60;99.90
26107;DHT22;13866;50.748;12.630;2022-08-21T09:17:06;21.40;99.90
26107;DHT22;13866;50.748;12.630;2022-08-21T09:19:46;21.40;99.90
26107;DHT22;13866;50.748;12.630;2022-08-21T09:25:23;21.20;99.90
26107;DHT22;13866;50.748;12.630;2022-08-21T09:27:49;21.10;99.90
26107;DHT22;13866;50.748;12.630;2022-08-21T09:30:16;21.30;99.90
26107;DHT22;13866;50.748;12.630;2022-08-21T09:32:42;21.60;99.90
26107;DHT22;13866;50.748;12.630;2022-08-21T09:35:16;21.70;99.90
26107;DHT22;13866;50.748;12.630;2022-08-21T09:37:57;22.40;99.90
26107;DHT22;13866;50.748;12.630;2022-08-21T09:40:40;21.90;99.90
26107;DHT22;13866;50.748;12.630;2022-08-21T09:45:41;21.40;99.90
26107;DHT22;13866;50.748;12.630;2022-08-21T09:48:13;21.40;99.90
26107;DHT22;13866;50.748;12.630;2022-08-21T09:50:40;21.50;99.90
26107;DHT22;13866;50.748;12.630;2022-08-21T09:53:18;21.50;99.90
26107;DHT22;13866;50.748;12.630;2022-08-21T09:56:00;22.10;99.90
26107;DHT22;13866;50.748;12.630;2022-08-21T09:58:48;22.30;99.90
26107;DHT22;13866;50.748;12.630;2022-08-21T10:01:20;22.30;99.90
26107;DHT22;13866;50.748;12.630;2022-08-21T10:03:46;22.50;99.90
26107;DHT22;13866;50.748;12.630;2022-08-21T10:06:23;22.60;99.90
26107;DHT22;13866;50.748;12.630;2022-08-21T10:08:49;23.10;99.90
26107;DHT22;13866;50.748;12.630;2022-08-21T10:11:16;23.30;99.90
26107;DHT22;13866;50.748;12.630;2022-08-21T10:16:37;23.20;99.90
26107;DHT22;13866;50.748;12.630;2022-08-21T10:19:14;23.00;99.90
26107;DHT22;13866;50.748;12.630;2022-08-21T10:22:09;23.00;99.90
26107;DHT22;13866;50.748;12.630;2022-08-21T10:24:52;22.10;99.90
26107;DHT22;13866;50.748;12.630;2022-08-21T10:30:15;22.80;99.90
26107;DHT22;13866;50.748;12.630;2022-08-21T10:32:59;23.40;99.90
26107;DHT22;13866;50.748;12.630;2022-08-21T10:35:31;23.40;99.90
26107;DHT22;13866;50.748;12.630;2022-08-21T10:38:07;22.80;99.90
26107;DHT22;13866;50.748;12.630;2022-08-21T10:40:54;22.60;99.90
26107;DHT22;13866;50.748;12.630;2022-08-21T10:46:32;22.10;99.90
26107;DHT22;13866;50.748;12.630;2022-08-21T10:51:54;22.90;99.90
26107;DHT22;13866;50.748;12.630;2022-08-21T10:54:52;22.80;99.90
26107;DHT22;13866;50.748;12.630;2022-08-21T10:57:40;22.50;99.90
26107;DHT22;13866;50.748;12.630;2022-08-21T11:00:10;22.30;99.90
26107;DHT22;13866;50.748;12.630;2022-08-21T11:05:33;21.80;99.90
26107;DHT22;13866;50.748;12.630;2022-08-21T11:08:20;21.90;99.90
26107;DHT22;13866;50.748;12.630;2022-08-21T11:10:52;22.30;99.90
26107;DHT22;13866;50.748;12.630;2022-08-21T11:16:26;23.10;99.90
26107;DHT22;13866;50.748;12.630;2022-08-21T11:19:22;23.20;99.90
26107;DHT22;13866;50.748;12.630;2022-08-21T11:22:18;23.40;99.90
26107;DHT22;13866;50.748;12.630;2022-08-21T11:24:54;23.20;99.90
26107;DHT22;13866;50.748;12.630;2022-08-21T11:27:55;22.90;99.90
26107;DHT22;13866;50.748;12.630;2022-08-21T11:30:24;23.40;99.90
26107;DHT22;13866;50.748;12.630;2022-08-21T11:38:34;23.70;99.90
26107;DHT22;13866;50.748;12.630;2022-08-21T11:44:36;23.80;99.90
26107;DHT22;13866;50.748;12.630;2022-08-21T11:47:19;23.80;99.90
26107;DHT22;13866;50.748;12.630;2022-08-21T11:50:17;23.80;99.90
26107;DHT22;13866;50.748;12.630;2022-08-21T11:52:50;24.20;99.90
26107;DHT22;13866;50.748;12.630;2022-08-21T11:55:26;24.30;99.90
26107;DHT22;13866;50.748;12.630;2022-08-21T11:58:00;24.10;99.90
26107;DHT22;13866;50.748;12.630;2022-08-21T12:00:30;24.10;99.90
26107;DHT22;13866;50.748;12.630;2022-08-21T12:03:06;24.30;99.90
26107;DHT22;13866;50.748;12.630;2022-08-21T12:05:36;24.40;99.90
26107;DHT22;13866;50.748;12.630;2022-08-21T12:08:05;24.10;99.90
26107;DHT22;13866;50.748;12.630;2022-08-21T12:10:34;24.00;99.90
26107;DHT22;13866;50.748;12.630;2022-08-21T12:13:30;23.40;99.90
26107;DHT22;13866;50.748;12.630;2022-08-21T12:16:38;23.20;99.90
26107;DHT22;13866;50.748;12.630;2022-08-21T12:19:09;23.50;99.90
26107;DHT22;13866;50.748;12.630;2022-08-21T12:24:44;23.70;99.90
26107;DHT22;13866;50.748;12.630;2022-08-21T12:27:26;23.50;99.90
26107;DHT22;13866;50.748;12.630;2022-08-21T12:29:56;23.70;99.90
26107;DHT22;13866;50.748;12.630;2022-08-21T12:32:45;23.90;99.90
26107;DHT22;13866;50.748;12.630;2022-08-21T12:35:21;24.10;99.90
26107;DHT22;13866;50.748;12.630;2022-08-21T12:37:56;24.40;99.90
26107;DHT22;13866;50.748;12.630;2022-08-21T12:40:39;24.10;99.90
26107;DHT22;13866;50.748;12.630;2022-08-21T12:43:13;24.10;99.90
26107;DHT22;13866;50.748;12.630;2022-08-21T12:45:46;24.40;99.90
26107;DHT22;13866;50.748;12.630;2022-08-21T12:48:27;24.30;99.90
26107;DHT22;13866;50.748;12.630;2022-08-21T12:51:12;23.90;99.90
26107;DHT22;13866;50.748;12.630;2022-08-21T12:56:16;23.20;99.90
26107;DHT22;13866;50.748;12.630;2022-08-21T12:59:11;23.40;99.90
26107;DHT22;13866;50.748;12.630;2022-08-21T13:01:48;23.60;99.90
26107;DHT22;13866;50.748;12.630;2022-08-21T13:04:21;24.10;99.90
26107;DHT22;13866;50.748;12.630;2022-08-21T13:06:52;24.40;99.90
26107;DHT22;13866;50.748;12.630;2022-08-21T13:09:20;24.30;99.90
26107;DHT22;13866;50.748;12.630;2022-08-21T13:11:48;24.40;99.90
26107;DHT22;13866;50.748;12.630;2022-08-21T13:14:23;23.90;99.90
26107;DHT22;13866;50.748;12.630;2022-08-21T13:17:10;24.00;99.90
26107;DHT22;13866;50.748;12.630;2022-08-21T13:19:36;23.80;99.90
26107;DHT22;13866;50.748;12.630;2022-08-21T13:22:03;23.90;99.90
26107;DHT22;13866;50.748;12.630;2022-08-21T13:24:34;24.30;99.90
26107;DHT22;13866;50.748;12.630;2022-08-21T13:27:00;24.00;99.90
26107;DHT22;13866;50.748;12.630;2022-08-21T13:29:32;24.20;99.90
26107;DHT22;13866;50.748;12.630;2022-08-21T13:32:03;24.40;99.90
26107;DHT22;13866;50.748;12.630;2022-08-21T13:34:34;24.50;99.90
26107;DHT22;13866;50.748;12.630;2022-08-21T13:37:06;24.40;99.90
26107;DHT22;13866;50.748;12.630;2022-08-21T13:39:33;24.50;99.90
26107;DHT22;13866;50.748;12.630;2022-08-21T13:42:02;24.60;99.90
26107;DHT22;13866;50.748;12.630;2022-08-21T13:46:56;23.80;99.90
26107;DHT22;13866;50.748;12.630;2022-08-21T13:49:29;23.60;99.90
26107;DHT22;13866;50.748;12.630;2022-08-21T13:51:55;23.10;99.90
26107;DHT22;13866;50.748;12.630;2022-08-21T13:54:32;22.90;99.90
26107;DHT22;13866;50.748;12.630;2022-08-21T13:56:58;22.90;99.90
26107;DHT22;13866;50.748;12.630;2022-08-21T13:59:30;23.20;99.90
26107;DHT22;13866;50.748;12.630;2022-08-21T14:02:10;23.50;99.90
26107;DHT22;13866;50.748;12.630;2022-08-21T14:04:38;23.70;99.90
26107;DHT22;13866;50.748;12.630;2022-08-21T14:07:21;23.60;99.90
26107;DHT22;13866;50.748;12.630;2022-08-21T14:09:49;23.70;99.90
26107;DHT22;13866;50.748;12.630;2022-08-21T14:12:28;23.70;99.90
26107;DHT22;13866;50.748;12.630;2022-08-21T14:14:55;23.80;99.90
26107;DHT22;13866;50.748;12.630;2022-08-21T14:17:31;23.70;99.90
26107;DHT22;13866;50.748;12.630;2022-08-21T14:19:57;23.80;99.90
26107;DHT22;13866;50.748;12.630;2022-08-21T14:22:44;23.60;99.90
26107;DHT22;13866;50.748;12.630;2022-08-21T14:30:41;23.20;99.90
26107;DHT22;13866;50.748;12.630;2022-08-21T14:33:13;23.30;99.90
26107;DHT22;13866;50.748;12.630;2022-08-21T14:35:43;23.40;99.90
26107;DHT22;13866;50.748;12.630;2022-08-21T14:38:27;23.60;99.90
26107;DHT22;13866;50.748;12.630;2022-08-21T14:40:57;23.50;99.90
26107;DHT22;13866;50.748;12.630;2022-08-21T14:43:26;23.50;99.90
26107;DHT22;13866;50.748;12.630;2022-08-21T14:45:52;23.70;99.90
26107;DHT22;13866;50.748;12.630;2022-08-21T14:48:18;23.70;99.90
26107;DHT22;13866;50.748;12.630;2022-08-21T14:50:44;24.00;99.90
26107;DHT22;13866;50.748;12.630;2022-08-21T14:53:10;24.10;99.90
26107;DHT22;13866;50.748;12.630;2022-08-21T14:55:36;24.20;99.90
26107;DHT22;13866;50.748;12.630;2022-08-21T14:58:23;23.60;99.90
26107;DHT22;13866;50.748;12.630;2022-08-21T15:00:50;23.30;99.90
26107;DHT22;13866;50.748;12.630;2022-08-21T15:03:16;23.30;99.90
26107;DHT22;13866;50.748;12.630;2022-08-21T15:05:42;23.20;99.90
26107;DHT22;13866;50.748;12.630;2022-08-21T15:08:07;23.30;99.90
26107;DHT22;13866;50.748;12.630;2022-08-21T15:10:34;23.50;99.90
26107;DHT22;13866;50.748;12.630;2022-08-21T15:13:01;23.20;99.90
26107;DHT22;13866;50.748;12.630;2022-08-21T15:15:26;23.20;99.90
26107;DHT22;13866;50.748;12.630;2022-08-21T15:17:52;23.30;99.90
26107;DHT22;13866;50.748;12.630;2022-08-21T15:20:18;23.50;99.90
26107;DHT22;13866;50.748;12.630;2022-08-21T15:22:43;23.40;99.90
26107;DHT22;13866;50.748;12.630;2022-08-21T15:25:09;23.50;99.90
26107;DHT22;13866;50.748;12.630;2022-08-21T15:27:35;23.30;99.90
26107;DHT22;13866;50.748;12.630;2022-08-21T15:30:02;23.30;99.90
26107;DHT22;13866;50.748;12.630;2022-08-21T15:32:28;23.20;99.90
26107;DHT22;13866;50.748;12.630;2022-08-21T15:34:57;23.20;99.90
26107;DHT22;13866;50.748;12.630;2022-08-21T15:37:23;23.20;99.90
26107;DHT22;13866;50.748;12.630;2022-08-21T15:39:50;23.20;99.90
26107;DHT22;13866;50.748;12.630;2022-08-21T15:42:17;23.30;99.90
26107;DHT22;13866;50.748;12.630;2022-08-21T15:44:43;23.50;99.90
26107;DHT22;13866;50.748;12.630;2022-08-21T15:47:13;23.50;99.90
26107;DHT22;13866;50.748;12.630;2022-08-21T15:49:40;23.40;99.90
26107;DHT22;13866;50.748;12.630;2022-08-21T15:52:14;23.30;99.90
26107;DHT22;13866;50.748;12.630;2022-08-21T15:54:40;23.30;99.90
26107;DHT22;13866;50.748;12.630;2022-08-21T15:57:06;23.30;99.90
26107;DHT22;13866;50.748;12.630;2022-08-21T15:59:39;23.20;99.90
26107;DHT22;13866;50.748;12.630;2022-08-21T16:02:08;23.20;99.90
26107;DHT22;13866;50.748;12.630;2022-08-21T16:04:36;23.10;99.90
26107;DHT22;13866;50.748;12.630;2022-08-21T16:07:02;23.00;99.90
26107;DHT22;13866;50.748;12.630;2022-08-21T16:09:27;23.00;99.90
26107;DHT22;13866;50.748;12.630;2022-08-21T16:11:53;23.00;99.90
26107;DHT22;13866;50.748;12.630;2022-08-21T16:14:18;23.00;99.90
26107;DHT22;13866;50.748;12.630;2022-08-21T16:16:44;23.00;99.90
26107;DHT22;13866;50.748;12.630;2022-08-21T16:19:10;22.90;99.90
26107;DHT22;13866;50.748;12.630;2022-08-21T16:21:36;22.90;99.90